sensor_id;sensor_type;location;lat;lon;timestamp;temperature;humidity
4787;DHT22;62338;48.832;9.422;2023-04-25T00:01:24;6.80;1.00
4787;DHT22;62338;48.832;9.422;2023-04-25T00:03:26;6.90;1.00
4787;DHT22;62338;48.832;9.422;2023-04-25T00:05:28;6.80;1.00
4787;DHT22;62338;48.832;9.422;2023-04-25T00:07:31;6.80;1.00
4787;DHT22;62338;48.832;9.422;2023-04-25T00:09:33;6.80;1.00
4787;DHT22;62338;48.832;9.422;2023-04-25T00:11:35;6.80;1.00
4787;DHT22;62338;48.832;9.422;2023-04-25T00:13:38;6.80;1.00
4787;DHT22;62338;48.832;9.422;2023-04-25T00:15:43;6.80;1.00
4787;DHT22;62338;48.832;9.422;2023-04-25T00:17:45;6.70;1.00
4787;DHT22;62338;48.832;9.422;2023-04-25T00:19:47;6.70;1.00
4787;DHT22;62338;48.832;9.422;2023-04-25T00:21:49;6.70;1.00
4787;DHT22;62338;48.832;9.422;2023-04-25T00:23:55;6.70;1.00
4787;DHT22;62338;48.832;9.422;2023-04-25T00:25:57;6.60;1.00
4787;DHT22;62338;48.832;9.422;2023-04-25T00:27:59;6.60;1.00
4787;DHT22;62338;48.832;9.422;2023-04-25T00:30:00;6.50;1.00
4787;DHT22;62338;48.832;9.422;2023-04-25T00:32:02;6.50;1.00
4787;DHT22;62338;48.832;9.422;2023-04-25T00:34:05;6.40;24.70
4787;DHT22;62338;48.832;9.422;2023-04-25T00:36:07;6.40;18.00
4787;DHT22;62338;48.832;9.422;2023-04-25T00:38:09;6.40;3.20
4787;DHT22;62338;48.832;9.422;2023-04-25T00:40:11;6.30;11.70
4787;DHT22;62338;48.832;9.422;2023-04-25T00:42:13;6.30;27.40
4787;DHT22;62338;48.832;9.422;2023-04-25T00:44:15;6.30;35.30
4787;DHT22;62338;48.832;9.422;2023-04-25T00:46:18;6.20;43.70
4787;DHT22;62338;48.832;9.422;2023-04-25T00:48:22;6.20;53.30
4787;DHT22;62338;48.832;9.422;2023-04-25T00:50:24;6.20;70.00
4787;DHT22;62338;48.832;9.422;2023-04-25T00:52:26;6.10;86.60
4787;DHT22;62338;48.832;9.422;2023-04-25T00:54:28;6.10;89.10
4787;DHT22;62338;48.832;9.422;2023-04-25T00:56:30;6.10;86.00
4787;DHT22;62338;48.832;9.422;2023-04-25T00:58:32;6.10;95.20
4787;DHT22;62338;48.832;9.422;2023-04-25T01:00:33;6.10;76.20
4787;DHT22;62338;48.832;9.422;2023-04-25T01:02:37;6.10;75.30
4787;DHT22;62338;48.832;9.422;2023-04-25T01:04:39;6.10;91.70
4787;DHT22;62338;48.832;9.422;2023-04-25T01:06:41;6.10;61.70
4787;DHT22;62338;48.832;9.422;2023-04-25T01:08:43;6.10;56.30
4787;DHT22;62338;48.832;9.422;2023-04-25T01:10:44;6.10;57.60
4787;DHT22;62338;48.832;9.422;2023-04-25T01:12:47;6.10;61.80
4787;DHT22;62338;48.832;9.422;2023-04-25T01:14:49;6.10;70.60
4787;DHT22;62338;48.832;9.422;2023-04-25T01:16:51;6.00;67.70
4787;DHT22;62338;48.832;9.422;2023-04-25T01:18:54;6.10;75.60
4787;DHT22;62338;48.832;9.422;2023-04-25T01:21:03;6.10;77.70
4787;DHT22;62338;48.832;9.422;2023-04-25T01:23:08;6.00;76.70
4787;DHT22;62338;48.832;9.422;2023-04-25T01:25:10;6.00;80.50
4787;DHT22;62338;48.832;9.422;2023-04-25T01:27:12;6.00;84.50
4787;DHT22;62338;48.832;9.422;2023-04-25T01:29:15;6.00;81.00
4787;DHT22;62338;48.832;9.422;2023-04-25T01:31:17;6.00;89.30
4787;DHT22;62338;48.832;9.422;2023-04-25T01:33:21;6.00;67.10
4787;DHT22;62338;48.832;9.422;2023-04-25T01:35:23;6.00;67.60
4787;DHT22;62338;48.832;9.422;2023-04-25T01:37:25;6.10;60.30
4787;DHT22;62338;48.832;9.422;2023-04-25T01:39:27;6.10;62.60
4787;DHT22;62338;48.832;9.422;2023-04-25T01:41:29;6.10;48.80
4787;DHT22;62338;48.832;9.422;2023-04-25T01:43:31;6.10;51.80
4787;DHT22;62338;48.832;9.422;2023-04-25T01:45:33;6.10;50.30
4787;DHT22;62338;48.832;9.422;2023-04-25T01:47:35;6.20;57.10
4787;DHT22;62338;48.832;9.422;2023-04-25T01:49:37;6.20;61.60
4787;DHT22;62338;48.832;9.422;2023-04-25T01:51:38;6.20;74.20
4787;DHT22;62338;48.832;9.422;2023-04-25T01:53:40;6.20;73.30
4787;DHT22;62338;48.832;9.422;2023-04-25T01:55:42;6.20;75.30
4787;DHT22;62338;48.832;9.422;2023-04-25T01:57:44;6.20;72.50
4787;DHT22;62338;48.832;9.422;2023-04-25T01:59:46;6.20;80.50
4787;DHT22;62338;48.832;9.422;2023-04-25T02:01:48;6.20;75.60
4787;DHT22;62338;48.832;9.422;2023-04-25T02:03:50;6.20;61.30
4787;DHT22;62338;48.832;9.422;2023-04-25T02:05:52;6.10;52.90
4787;DHT22;62338;48.832;9.422;2023-04-25T02:07:54;6.10;58.20
4787;DHT22;62338;48.832;9.422;2023-04-25T02:09:56;6.00;75.10
4787;DHT22;62338;48.832;9.422;2023-04-25T02:11:58;6.00;80.40
4787;DHT22;62338;48.832;9.422;2023-04-25T02:13:59;6.00;87.30
4787;DHT22;62338;48.832;9.422;2023-04-25T02:16:01;5.90;90.80
4787;DHT22;62338;48.832;9.422;2023-04-25T02:18:03;5.90;97.70
4787;DHT22;62338;48.832;9.422;2023-04-25T02:20:05;5.90;98.90
4787;DHT22;62338;48.832;9.422;2023-04-25T02:22:07;5.90;96.90
4787;DHT22;62338;48.832;9.422;2023-04-25T02:24:09;6.00;99.90
4787;DHT22;62338;48.832;9.422;2023-04-25T02:26:11;6.00;99.90
4787;DHT22;62338;48.832;9.422;2023-04-25T02:28:13;6.00;99.90
4787;DHT22;62338;48.832;9.422;2023-04-25T02:30:14;6.00;99.90
4787;DHT22;62338;48.832;9.422;2023-04-25T02:32:17;6.10;99.90
4787;DHT22;62338;48.832;9.422;2023-04-25T02:34:18;6.10;99.90
4787;DHT22;62338;48.832;9.422;2023-04-25T02:36:20;6.10;99.90
4787;DHT22;62338;48.832;9.422;2023-04-25T02:38:22;6.20;95.30
4787;DHT22;62338;48.832;9.422;2023-04-25T02:40:23;6.20;95.90
4787;DHT22;62338;48.832;9.422;2023-04-25T02:42:26;6.20;99.90
4787;DHT22;62338;48.832;9.422;2023-04-25T02:44:28;6.10;99.90
4787;DHT22;62338;48.832;9.422;2023-04-25T02:46:30;6.00;99.90
4787;DHT22;62338;48.832;9.422;2023-04-25T02:48:39;5.90;99.90
4787;DHT22;62338;48.832;9.422;2023-04-25T02:50:41;5.90;99.90
4787;DHT22;62338;48.832;9.422;2023-04-25T02:52:43;5.80;99.90
4787;DHT22;62338;48.832;9.422;2023-04-25T02:54:45;5.70;99.90
4787;DHT22;62338;48.832;9.422;2023-04-25T02:56:47;5.60;99.90
4787;DHT22;62338;48.832;9.422;2023-04-25T02:58:48;5.60;99.90
4787;DHT22;62338;48.832;9.422;2023-04-25T03:00:50;5.60;99.90
4787;DHT22;62338;48.832;9.422;2023-04-25T03:02:52;5.60;99.90
4787;DHT22;62338;48.832;9.422;2023-04-25T03:04:54;5.60;99.90
4787;DHT22;62338;48.832;9.422;2023-04-25T03:06:55;5.60;99.90
4787;DHT22;62338;48.832;9.422;2023-04-25T03:08:57;5.70;99.90
4787;DHT22;62338;48.832;9.422;2023-04-25T03:10:59;5.60;99.90
4787;DHT22;62338;48.832;9.422;2023-04-25T03:13:01;5.70;99.90
4787;DHT22;62338;48.832;9.422;2023-04-25T03:15:03;5.70;99.90
4787;DHT22;62338;48.832;9.422;2023-04-25T03:17:05;5.60;99.90
4787;DHT22;62338;48.832;9.422;2023-04-25T03:19:07;5.70;99.90
4787;DHT22;62338;48.832;9.422;2023-04-25T03:21:08;5.70;99.90
4787;DHT22;62338;48.832;9.422;2023-04-25T03:23:10;5.70;99.90
4787;DHT22;62338;48.832;9.422;2023-04-25T03:25:12;5.70;99.90
4787;DHT22;62338;48.832;9.422;2023-04-25T03:27:13;5.60;99.90
4787;DHT22;62338;48.832;9.422;2023-04-25T03:29:15;5.70;99.90
4787;DHT22;62338;48.832;9.422;2023-04-25T03:31:17;5.60;99.90
4787;DHT22;62338;48.832;9.422;2023-04-25T03:33:18;5.60;99.90
4787;DHT22;62338;48.832;9.422;2023-04-25T03:35:20;5.60;99.90
4787;DHT22;62338;48.832;9.422;2023-04-25T03:37:22;5.60;99.90
4787;DHT22;62338;48.832;9.422;2023-04-25T03:39:24;5.60;99.90
4787;DHT22;62338;48.832;9.422;2023-04-25T03:41:26;5.50;99.90
4787;DHT22;62338;48.832;9.422;2023-04-25T03:43:27;5.50;99.90
4787;DHT22;62338;48.832;9.422;2023-04-25T03:45:29;5.40;99.90
4787;DHT22;62338;48.832;9.422;2023-04-25T03:47:31;5.40;99.90
4787;DHT22;62338;48.832;9.422;2023-04-25T03:49:34;5.30;99.90
4787;DHT22;62338;48.832;9.422;2023-04-25T03:51:36;5.30;99.90
4787;DHT22;62338;48.832;9.422;2023-04-25T03:53:38;5.30;99.90
4787;DHT22;62338;48.832;9.422;2023-04-25T03:55:39;5.30;99.90
4787;DHT22;62338;48.832;9.422;2023-04-25T03:57:44;5.30;99.90
4787;DHT22;62338;48.832;9.422;2023-04-25T03:59:45;5.30;99.90
4787;DHT22;62338;48.832;9.422;2023-04-25T04:01:47;5.40;99.90
4787;DHT22;62338;48.832;9.422;2023-04-25T04:03:49;5.50;99.90
4787;DHT22;62338;48.832;9.422;2023-04-25T04:05:51;5.50;99.90
4787;DHT22;62338;48.832;9.422;2023-04-25T04:07:54;5.60;99.90
4787;DHT22;62338;48.832;9.422;2023-04-25T04:09:56;5.70;99.90
4787;DHT22;62338;48.832;9.422;2023-04-25T04:11:57;5.70;99.90
4787;DHT22;62338;48.832;9.422;2023-04-25T04:13:59;5.70;99.90
4787;DHT22;62338;48.832;9.422;2023-04-25T04:16:01;5.80;99.90
4787;DHT22;62338;48.832;9.422;2023-04-25T04:18:03;5.80;99.90
4787;DHT22;62338;48.832;9.422;2023-04-25T04:20:06;5.80;99.90
4787;DHT22;62338;48.832;9.422;2023-04-25T04:22:08;5.80;99.90
4787;DHT22;62338;48.832;9.422;2023-04-25T04:24:10;5.90;99.90
4787;DHT22;62338;48.832;9.422;2023-04-25T04:26:12;5.90;99.90
4787;DHT22;62338;48.832;9.422;2023-04-25T04:28:14;5.90;99.90
4787;DHT22;62338;48.832;9.422;2023-04-25T04:30:17;6.00;99.90
4787;DHT22;62338;48.832;9.422;2023-04-25T04:32:19;6.00;99.90
4787;DHT22;62338;48.832;9.422;2023-04-25T04:34:20;6.00;99.90
4787;DHT22;62338;48.832;9.422;2023-04-25T04:36:22;6.00;99.90
4787;DHT22;62338;48.832;9.422;2023-04-25T04:38:24;6.00;99.90
4787;DHT22;62338;48.832;9.422;2023-04-25T04:40:27;6.00;99.90
4787;DHT22;62338;48.832;9.422;2023-04-25T04:42:29;6.00;99.90
4787;DHT22;62338;48.832;9.422;2023-04-25T04:44:31;6.10;99.90
4787;DHT22;62338;48.832;9.422;2023-04-25T04:46:35;6.10;99.90
4787;DHT22;62338;48.832;9.422;2023-04-25T04:48:43;6.20;99.90
4787;DHT22;62338;48.832;9.422;2023-04-25T04:50:46;6.20;99.90
4787;DHT22;62338;48.832;9.422;2023-04-25T04:52:47;6.20;99.90
4787;DHT22;62338;48.832;9.422;2023-04-25T04:54:49;6.20;99.90
4787;DHT22;62338;48.832;9.422;2023-04-25T04:56:51;6.30;99.90
4787;DHT22;62338;48.832;9.422;2023-04-25T04:58:54;6.30;99.90
4787;DHT22;62338;48.832;9.422;2023-04-25T05:00:55;6.30;99.90
4787;DHT22;62338;48.832;9.422;2023-04-25T05:02:57;6.40;99.90
4787;DHT22;62338;48.832;9.422;2023-04-25T05:04:59;6.40;99.90
4787;DHT22;62338;48.832;9.422;2023-04-25T05:07:01;6.40;99.90
4787;DHT22;62338;48.832;9.422;2023-04-25T05:09:03;6.40;99.90
4787;DHT22;62338;48.832;9.422;2023-04-25T05:11:05;6.40;99.90
4787;DHT22;62338;48.832;9.422;2023-04-25T05:13:07;6.40;99.90
4787;DHT22;62338;48.832;9.422;2023-04-25T05:15:09;6.40;99.90
4787;DHT22;62338;48.832;9.422;2023-04-25T05:17:11;6.40;99.90
4787;DHT22;62338;48.832;9.422;2023-04-25T05:19:13;6.40;99.90
4787;DHT22;62338;48.832;9.422;2023-04-25T05:21:14;6.40;99.90
4787;DHT22;62338;48.832;9.422;2023-04-25T05:23:16;6.50;99.90
4787;DHT22;62338;48.832;9.422;2023-04-25T05:25:18;6.50;96.80
4787;DHT22;62338;48.832;9.422;2023-04-25T05:27:19;6.50;98.20
4787;DHT22;62338;48.832;9.422;2023-04-25T05:29:21;6.50;92.60
4787;DHT22;62338;48.832;9.422;2023-04-25T05:31:23;6.60;88.90
4787;DHT22;62338;48.832;9.422;2023-04-25T05:33:25;6.70;85.70
4787;DHT22;62338;48.832;9.422;2023-04-25T05:35:27;6.70;22.60
4787;DHT22;62338;48.832;9.422;2023-04-25T05:37:28;6.70;31.80
4787;DHT22;62338;48.832;9.422;2023-04-25T05:39:32;6.70;43.40
4787;DHT22;62338;48.832;9.422;2023-04-25T05:41:34;6.70;30.40
4787;DHT22;62338;48.832;9.422;2023-04-25T05:43:36;6.80;55.00
4787;DHT22;62338;48.832;9.422;2023-04-25T05:45:38;6.90;29.60
4787;DHT22;62338;48.832;9.422;2023-04-25T05:47:39;7.00;24.00
4787;DHT22;62338;48.832;9.422;2023-04-25T05:49:41;7.20;2.60
4787;DHT22;62338;48.832;9.422;2023-04-25T05:51:43;7.50;1.00
4787;DHT22;62338;48.832;9.422;2023-04-25T05:53:45;7.70;1.00
4787;DHT22;62338;48.832;9.422;2023-04-25T05:55:46;7.80;1.00
4787;DHT22;62338;48.832;9.422;2023-04-25T05:57:48;7.90;1.00
4787;DHT22;62338;48.832;9.422;2023-04-25T05:59:52;7.80;1.00
4787;DHT22;62338;48.832;9.422;2023-04-25T06:01:54;7.90;1.00
4787;DHT22;62338;48.832;9.422;2023-04-25T06:03:56;7.70;1.00
4787;DHT22;62338;48.832;9.422;2023-04-25T06:05:58;7.50;1.00
4787;DHT22;62338;48.832;9.422;2023-04-25T06:08:00;7.50;1.00
4787;DHT22;62338;48.832;9.422;2023-04-25T06:10:03;7.50;1.60
4787;DHT22;62338;48.832;9.422;2023-04-25T06:12:07;7.60;1.00
4787;DHT22;62338;48.832;9.422;2023-04-25T06:14:09;7.50;6.30
4787;DHT22;62338;48.832;9.422;2023-04-25T06:16:11;7.40;43.60
4787;DHT22;62338;48.832;9.422;2023-04-25T06:18:13;7.40;29.70
4787;DHT22;62338;48.832;9.422;2023-04-25T06:20:15;7.20;78.80
4787;DHT22;62338;48.832;9.422;2023-04-25T06:22:16;7.10;60.60
4787;DHT22;62338;48.832;9.422;2023-04-25T06:24:18;6.90;53.30
4787;DHT22;62338;48.832;9.422;2023-04-25T06:26:20;6.80;99.80
4787;DHT22;62338;48.832;9.422;2023-04-25T06:28:22;6.70;99.90
4787;DHT22;62338;48.832;9.422;2023-04-25T06:30:24;6.70;99.90
4787;DHT22;62338;48.832;9.422;2023-04-25T06:32:27;6.70;99.90
4787;DHT22;62338;48.832;9.422;2023-04-25T06:34:31;6.70;99.90
4787;DHT22;62338;48.832;9.422;2023-04-25T06:36:32;6.80;99.90
4787;DHT22;62338;48.832;9.422;2023-04-25T06:38:34;7.00;99.90
4787;DHT22;62338;48.832;9.422;2023-04-25T06:40:36;7.20;99.90
4787;DHT22;62338;48.832;9.422;2023-04-25T06:42:38;7.50;99.90
4787;DHT22;62338;48.832;9.422;2023-04-25T06:44:40;7.70;29.80
4787;DHT22;62338;48.832;9.422;2023-04-25T06:46:42;7.90;21.40
4787;DHT22;62338;48.832;9.422;2023-04-25T06:48:43;8.30;1.00
4787;DHT22;62338;48.832;9.422;2023-04-25T06:50:45;8.80;1.00
4787;DHT22;62338;48.832;9.422;2023-04-25T06:52:47;9.70;1.00
4787;DHT22;62338;48.832;9.422;2023-04-25T06:54:48;10.70;1.00
4787;DHT22;62338;48.832;9.422;2023-04-25T06:56:50;11.40;1.00
4787;DHT22;62338;48.832;9.422;2023-04-25T06:58:52;11.80;99.90
4787;DHT22;62338;48.832;9.422;2023-04-25T07:00:56;11.90;99.90
4787;DHT22;62338;48.832;9.422;2023-04-25T07:02:58;12.10;99.90
4787;DHT22;62338;48.832;9.422;2023-04-25T07:05:01;12.40;99.90
4787;DHT22;62338;48.832;9.422;2023-04-25T07:07:05;12.70;1.00
4787;DHT22;62338;48.832;9.422;2023-04-25T07:09:07;12.80;1.00
4787;DHT22;62338;48.832;9.422;2023-04-25T07:11:08;12.10;99.90
4787;DHT22;62338;48.832;9.422;2023-04-25T07:13:10;12.00;99.90
4787;DHT22;62338;48.832;9.422;2023-04-25T07:15:12;11.30;1.00
4787;DHT22;62338;48.832;9.422;2023-04-25T07:17:13;10.90;89.10
4787;DHT22;62338;48.832;9.422;2023-04-25T07:19:15;10.40;1.00
4787;DHT22;62338;48.832;9.422;2023-04-25T07:21:17;10.20;99.90
4787;DHT22;62338;48.832;9.422;2023-04-25T07:23:18;9.90;99.90
4787;DHT22;62338;48.832;9.422;2023-04-25T07:25:20;9.60;99.90
4787;DHT22;62338;48.832;9.422;2023-04-25T07:27:22;9.50;99.90
4787;DHT22;62338;48.832;9.422;2023-04-25T07:29:24;9.30;99.90
4787;DHT22;62338;48.832;9.422;2023-04-25T07:31:26;9.00;1.00
4787;DHT22;62338;48.832;9.422;2023-04-25T07:33:28;8.90;1.00
4787;DHT22;62338;48.832;9.422;2023-04-25T07:35:30;8.80;1.00
4787;DHT22;62338;48.832;9.422;2023-04-25T07:37:32;8.70;1.00
4787;DHT22;62338;48.832;9.422;2023-04-25T07:39:34;8.50;1.00
4787;DHT22;62338;48.832;9.422;2023-04-25T07:41:36;8.30;1.00
4787;DHT22;62338;48.832;9.422;2023-04-25T07:43:38;8.30;1.00
4787;DHT22;62338;48.832;9.422;2023-04-25T07:45:40;8.20;1.00
4787;DHT22;62338;48.832;9.422;2023-04-25T07:47:41;8.10;1.00
4787;DHT22;62338;48.832;9.422;2023-04-25T07:49:43;8.10;1.00
4787;DHT22;62338;48.832;9.422;2023-04-25T07:51:45;8.20;1.00
4787;DHT22;62338;48.832;9.422;2023-04-25T07:53:47;8.20;1.00
4787;DHT22;62338;48.832;9.422;2023-04-25T07:55:51;8.30;1.00
4787;DHT22;62338;48.832;9.422;2023-04-25T07:57:53;8.30;1.00
4787;DHT22;62338;48.832;9.422;2023-04-25T07:59:55;8.40;1.00
4787;DHT22;62338;48.832;9.422;2023-04-25T08:01:57;8.30;1.00
4787;DHT22;62338;48.832;9.422;2023-04-25T08:04:01;8.30;1.00
4787;DHT22;62338;48.832;9.422;2023-04-25T08:06:04;8.20;1.00
4787;DHT22;62338;48.832;9.422;2023-04-25T08:08:09;8.30;1.00
4787;DHT22;62338;48.832;9.422;2023-04-25T08:10:11;8.20;1.00
4787;DHT22;62338;48.832;9.422;2023-04-25T08:12:12;8.30;1.00
4787;DHT22;62338;48.832;9.422;2023-04-25T08:14:14;8.30;1.00
4787;DHT22;62338;48.832;9.422;2023-04-25T08:16:16;8.20;1.00
4787;DHT22;62338;48.832;9.422;2023-04-25T08:18:18;8.20;1.00
4787;DHT22;62338;48.832;9.422;2023-04-25T08:20:20;8.10;1.00
4787;DHT22;62338;48.832;9.422;2023-04-25T08:22:21;7.90;1.00
4787;DHT22;62338;48.832;9.422;2023-04-25T08:24:23;7.80;1.00
4787;DHT22;62338;48.832;9.422;2023-04-25T08:26:25;7.60;18.40
4787;DHT22;62338;48.832;9.422;2023-04-25T08:28:27;7.40;42.70
4787;DHT22;62338;48.832;9.422;2023-04-25T08:30:29;7.30;99.90
4787;DHT22;62338;48.832;9.422;2023-04-25T08:32:31;7.20;99.90
4787;DHT22;62338;48.832;9.422;2023-04-25T08:34:32;7.20;99.90
4787;DHT22;62338;48.832;9.422;2023-04-25T08:36:34;7.20;99.90
4787;DHT22;62338;48.832;9.422;2023-04-25T08:38:40;7.30;99.90
4787;DHT22;62338;48.832;9.422;2023-04-25T08:40:43;7.30;99.90
4787;DHT22;62338;48.832;9.422;2023-04-25T08:42:45;7.30;99.90
4787;DHT22;62338;48.832;9.422;2023-04-25T08:44:49;7.30;99.90
4787;DHT22;62338;48.832;9.422;2023-04-25T08:46:52;7.20;99.90
4787;DHT22;62338;48.832;9.422;2023-04-25T08:48:59;7.10;99.90
4787;DHT22;62338;48.832;9.422;2023-04-25T08:51:02;6.90;99.90
4787;DHT22;62338;48.832;9.422;2023-04-25T08:53:08;6.80;99.90
4787;DHT22;62338;48.832;9.422;2023-04-25T08:55:12;6.70;99.90
4787;DHT22;62338;48.832;9.422;2023-04-25T08:57:14;6.70;99.90
4787;DHT22;62338;48.832;9.422;2023-04-25T08:59:17;6.70;99.90
4787;DHT22;62338;48.832;9.422;2023-04-25T09:01:18;6.70;99.90
4787;DHT22;62338;48.832;9.422;2023-04-25T09:03:20;6.70;99.90
4787;DHT22;62338;48.832;9.422;2023-04-25T09:05:23;6.70;99.90
4787;DHT22;62338;48.832;9.422;2023-04-25T09:07:25;6.80;99.90
4787;DHT22;62338;48.832;9.422;2023-04-25T09:09:27;6.90;99.90
4787;DHT22;62338;48.832;9.422;2023-04-25T09:11:29;7.00;99.90
4787;DHT22;62338;48.832;9.422;2023-04-25T09:13:31;7.00;99.90
4787;DHT22;62338;48.832;9.422;2023-04-25T09:15:33;7.00;99.90
4787;DHT22;62338;48.832;9.422;2023-04-25T09:17:34;7.10;99.90
4787;DHT22;62338;48.832;9.422;2023-04-25T09:19:37;7.00;99.90
4787;DHT22;62338;48.832;9.422;2023-04-25T09:21:43;7.00;99.90
4787;DHT22;62338;48.832;9.422;2023-04-25T09:23:47;6.90;99.90
4787;DHT22;62338;48.832;9.422;2023-04-25T09:25:51;7.00;99.90
4787;DHT22;62338;48.832;9.422;2023-04-25T09:27:53;7.00;99.90
4787;DHT22;62338;48.832;9.422;2023-04-25T09:29:59;7.20;99.90
4787;DHT22;62338;48.832;9.422;2023-04-25T09:32:22;7.40;99.90
4787;DHT22;62338;48.832;9.422;2023-04-25T09:34:25;7.20;99.90
4787;DHT22;62338;48.832;9.422;2023-04-25T09:36:29;7.20;99.90
4787;DHT22;62338;48.832;9.422;2023-04-25T09:38:32;7.10;99.90
4787;DHT22;62338;48.832;9.422;2023-04-25T09:40:34;7.10;99.90
4787;DHT22;62338;48.832;9.422;2023-04-25T09:42:35;7.10;99.90
4787;DHT22;62338;48.832;9.422;2023-04-25T09:44:42;7.10;99.90
4787;DHT22;62338;48.832;9.422;2023-04-25T09:46:49;7.10;99.90
4787;DHT22;62338;48.832;9.422;2023-04-25T09:48:54;7.20;99.90
4787;DHT22;62338;48.832;9.422;2023-04-25T09:51:13;7.20;99.90
4787;DHT22;62338;48.832;9.422;2023-04-25T09:53:17;7.20;99.90
4787;DHT22;62338;48.832;9.422;2023-04-25T09:55:19;7.20;99.90
4787;DHT22;62338;48.832;9.422;2023-04-25T09:57:24;7.30;99.90
4787;DHT22;62338;48.832;9.422;2023-04-25T09:59:26;7.30;99.90
4787;DHT22;62338;48.832;9.422;2023-04-25T10:01:28;7.30;99.90
4787;DHT22;62338;48.832;9.422;2023-04-25T10:03:40;7.00;99.90
4787;DHT22;62338;48.832;9.422;2023-04-25T10:05:43;6.80;99.90
4787;DHT22;62338;48.832;9.422;2023-04-25T10:07:46;6.70;99.90
4787;DHT22;62338;48.832;9.422;2023-04-25T10:09:48;6.50;99.90
4787;DHT22;62338;48.832;9.422;2023-04-25T10:11:53;6.40;99.90
4787;DHT22;62338;48.832;9.422;2023-04-25T10:13:56;6.30;99.90
4787;DHT22;62338;48.832;9.422;2023-04-25T10:16:02;6.30;99.90
4787;DHT22;62338;48.832;9.422;2023-04-25T10:18:05;6.30;99.90
4787;DHT22;62338;48.832;9.422;2023-04-25T10:20:08;6.30;99.90
4787;DHT22;62338;48.832;9.422;2023-04-25T10:22:34;6.10;99.90
4787;DHT22;62338;48.832;9.422;2023-04-25T10:24:37;5.90;99.90
4787;DHT22;62338;48.832;9.422;2023-04-25T10:26:40;5.90;99.90
4787;DHT22;62338;48.832;9.422;2023-04-25T10:29:01;5.80;99.90
4787;DHT22;62338;48.832;9.422;2023-04-25T10:31:04;5.80;99.90
4787;DHT22;62338;48.832;9.422;2023-04-25T10:33:18;5.80;99.90
4787;DHT22;62338;48.832;9.422;2023-04-25T10:35:30;5.90;99.90
4787;DHT22;62338;48.832;9.422;2023-04-25T10:37:32;5.90;99.90
4787;DHT22;62338;48.832;9.422;2023-04-25T10:39:34;5.80;99.90
4787;DHT22;62338;48.832;9.422;2023-04-25T10:41:53;5.80;99.90
4787;DHT22;62338;48.832;9.422;2023-04-25T10:43:59;5.70;99.90
4787;DHT22;62338;48.832;9.422;2023-04-25T10:48:27;5.70;99.90
4787;DHT22;62338;48.832;9.422;2023-04-25T10:50:37;5.60;99.90
4787;DHT22;62338;48.832;9.422;2023-04-25T10:52:40;5.60;99.90
4787;DHT22;62338;48.832;9.422;2023-04-25T10:54:51;5.60;99.90
4787;DHT22;62338;48.832;9.422;2023-04-25T10:56:53;5.50;99.90
4787;DHT22;62338;48.832;9.422;2023-04-25T10:59:13;5.40;99.90
4787;DHT22;62338;48.832;9.422;2023-04-25T11:01:20;5.30;99.90
4787;DHT22;62338;48.832;9.422;2023-04-25T11:03:24;5.30;99.90
4787;DHT22;62338;48.832;9.422;2023-04-25T11:05:33;5.20;99.90
4787;DHT22;62338;48.832;9.422;2023-04-25T11:07:57;4.90;99.90
4787;DHT22;62338;48.832;9.422;2023-04-25T11:10:09;4.50;99.90
4787;DHT22;62338;48.832;9.422;2023-04-25T11:12:10;4.30;99.90
4787;DHT22;62338;48.832;9.422;2023-04-25T11:14:13;4.20;99.90
4787;DHT22;62338;48.832;9.422;2023-04-25T11:16:16;4.30;99.90
4787;DHT22;62338;48.832;9.422;2023-04-25T11:18:28;4.40;99.90
4787;DHT22;62338;48.832;9.422;2023-04-25T11:20:30;4.60;99.90
4787;DHT22;62338;48.832;9.422;2023-04-25T11:22:32;4.60;99.90
4787;DHT22;62338;48.832;9.422;2023-04-25T11:24:35;4.70;99.90
4787;DHT22;62338;48.832;9.422;2023-04-25T11:26:38;4.80;99.90
4787;DHT22;62338;48.832;9.422;2023-04-25T11:28:40;4.90;99.90
4787;DHT22;62338;48.832;9.422;2023-04-25T11:30:48;4.90;99.90
4787;DHT22;62338;48.832;9.422;2023-04-25T11:32:50;4.90;99.90
4787;DHT22;62338;48.832;9.422;2023-04-25T11:34:53;5.00;99.90
4787;DHT22;62338;48.832;9.422;2023-04-25T11:36:55;5.10;99.90
4787;DHT22;62338;48.832;9.422;2023-04-25T11:38:57;5.10;99.90
4787;DHT22;62338;48.832;9.422;2023-04-25T11:40:58;5.30;99.90
4787;DHT22;62338;48.832;9.422;2023-04-25T11:43:01;8.30;99.90
4787;DHT22;62338;48.832;9.422;2023-04-25T11:45:04;5.50;99.90
4787;DHT22;62338;48.832;9.422;2023-04-25T11:47:07;5.60;99.90
4787;DHT22;62338;48.832;9.422;2023-04-25T11:49:09;5.60;99.90
4787;DHT22;62338;48.832;9.422;2023-04-25T11:51:11;5.80;99.90
4787;DHT22;62338;48.832;9.422;2023-04-25T11:53:13;6.10;99.90
4787;DHT22;62338;48.832;9.422;2023-04-25T11:55:16;6.40;99.90
4787;DHT22;62338;48.832;9.422;2023-04-25T11:57:19;6.60;99.90
4787;DHT22;62338;48.832;9.422;2023-04-25T11:59:25;7.10;99.90
4787;DHT22;62338;48.832;9.422;2023-04-25T12:01:35;7.70;99.90
4787;DHT22;62338;48.832;9.422;2023-04-25T12:03:45;7.90;99.90
4787;DHT22;62338;48.832;9.422;2023-04-25T12:05:48;8.30;99.90
4787;DHT22;62338;48.832;9.422;2023-04-25T12:07:50;8.50;99.90
4787;DHT22;62338;48.832;9.422;2023-04-25T12:09:52;8.40;52.60
4787;DHT22;62338;48.832;9.422;2023-04-25T12:11:56;8.20;99.90
4787;DHT22;62338;48.832;9.422;2023-04-25T12:14:02;8.10;99.90
4787;DHT22;62338;48.832;9.422;2023-04-25T12:16:05;8.00;99.90
4787;DHT22;62338;48.832;9.422;2023-04-25T12:18:07;8.20;99.90
4787;DHT22;62338;48.832;9.422;2023-04-25T12:20:14;8.30;99.90
4787;DHT22;62338;48.832;9.422;2023-04-25T12:22:21;8.20;99.90
4787;DHT22;62338;48.832;9.422;2023-04-25T12:24:26;8.10;99.90
4787;DHT22;62338;48.832;9.422;2023-04-25T12:26:48;8.00;99.90
4787;DHT22;62338;48.832;9.422;2023-04-25T12:28:52;7.90;55.90
4787;DHT22;62338;48.832;9.422;2023-04-25T12:31:28;7.60;99.90
4787;DHT22;62338;48.832;9.422;2023-04-25T12:33:27;7.50;99.90
4787;DHT22;62338;48.832;9.422;2023-04-25T12:35:29;7.40;99.90
4787;DHT22;62338;48.832;9.422;2023-04-25T12:37:30;7.20;99.90
4787;DHT22;62338;48.832;9.422;2023-04-25T12:39:32;7.00;99.90
4787;DHT22;62338;48.832;9.422;2023-04-25T12:41:34;7.00;99.90
4787;DHT22;62338;48.832;9.422;2023-04-25T12:43:36;6.70;99.90
4787;DHT22;62338;48.832;9.422;2023-04-25T12:45:38;6.60;99.90
4787;DHT22;62338;48.832;9.422;2023-04-25T12:47:40;6.40;99.90
4787;DHT22;62338;48.832;9.422;2023-04-25T12:49:41;6.40;99.90
4787;DHT22;62338;48.832;9.422;2023-04-25T12:51:43;6.50;99.90
4787;DHT22;62338;48.832;9.422;2023-04-25T12:53:45;6.70;99.90
4787;DHT22;62338;48.832;9.422;2023-04-25T12:55:47;6.90;99.90
4787;DHT22;62338;48.832;9.422;2023-04-25T12:57:49;7.10;99.90
4787;DHT22;62338;48.832;9.422;2023-04-25T12:59:51;7.20;99.90
4787;DHT22;62338;48.832;9.422;2023-04-25T13:01:53;7.40;99.90
4787;DHT22;62338;48.832;9.422;2023-04-25T13:03:55;7.60;99.90
4787;DHT22;62338;48.832;9.422;2023-04-25T13:05:57;7.60;99.90
4787;DHT22;62338;48.832;9.422;2023-04-25T13:07:59;7.70;99.90
4787;DHT22;62338;48.832;9.422;2023-04-25T13:10:01;7.80;99.90
4787;DHT22;62338;48.832;9.422;2023-04-25T13:12:04;8.00;99.90
4787;DHT22;62338;48.832;9.422;2023-04-25T13:14:06;8.00;99.90
4787;DHT22;62338;48.832;9.422;2023-04-25T13:16:08;8.10;99.90
4787;DHT22;62338;48.832;9.422;2023-04-25T13:18:10;8.50;99.90
4787;DHT22;62338;48.832;9.422;2023-04-25T13:20:12;9.10;99.90
4787;DHT22;62338;48.832;9.422;2023-04-25T13:22:16;9.50;29.70
4787;DHT22;62338;48.832;9.422;2023-04-25T13:24:18;10.00;23.40
4787;DHT22;62338;48.832;9.422;2023-04-25T13:26:20;10.00;14.50
4787;DHT22;62338;48.832;9.422;2023-04-25T13:28:21;10.00;1.00